createdAt,value
2022-11-01T00:02:37.081Z,13.84
2022-11-01T00:17:40.031Z,13.91
2022-11-01T00:32:43.441Z,14.00
2022-11-01T00:47:47.885Z,14.00
2022-11-01T01:02:50.798Z,13.99
2022-11-01T01:17:53.789Z,13.98
2022-11-01T01:32:57.003Z,13.94
2022-11-01T01:48:23.674Z,13.91
2022-11-01T02:03:37.882Z,13.95
2022-11-01T02:19:11.336Z,13.89
2022-11-01T02:34:29.803Z,13.70
2022-11-01T02:49:37.454Z,13.61
2022-11-01T03:04:40.641Z,13.62
2022-11-01T03:20:00.901Z,13.73
2022-11-01T03:35:06.038Z,13.68
2022-11-01T03:50:29.335Z,13.58
2022-11-01T04:05:34.131Z,13.64
2022-11-01T04:20:38.154Z,13.60
2022-11-01T04:35:41.430Z,13.60
2022-11-01T04:50:45.746Z,13.66
2022-11-01T05:05:48.811Z,13.62
2022-11-01T05:20:51.949Z,13.46
2022-11-01T05:35:55.197Z,13.52
2022-11-01T05:50:58.377Z,13.51
2022-11-01T06:06:01.438Z,13.49
2022-11-01T06:21:04.657Z,13.47
2022-11-01T06:36:07.996Z,13.42
2022-11-01T06:51:11.041Z,13.24
2022-11-01T07:06:14.797Z,13.32
2022-11-01T07:21:18.691Z,13.25
2022-11-01T07:36:22.344Z,13.29
2022-11-01T07:51:25.856Z,13.32
2022-11-01T08:06:28.934Z,13.31
2022-11-01T08:21:32.297Z,13.22
2022-11-01T08:36:35.485Z,13.39
2022-11-01T08:51:39.737Z,13.40
2022-11-01T09:06:43.486Z,13.46
2022-11-01T09:21:47.188Z,13.67
2022-11-01T09:36:50.289Z,13.73
2022-11-01T09:51:55.099Z,13.62
2022-11-01T10:07:05.286Z,13.71
2022-11-01T10:22:39.978Z,13.88
2022-11-01T10:38:04.353Z,14.03
2022-11-01T10:53:19.882Z,13.80
2022-11-01T11:08:25.165Z,13.71
2022-11-01T11:23:33.305Z,13.65
2022-11-01T11:38:42.180Z,13.87
2022-11-01T11:53:45.742Z,14.04
2022-11-01T12:08:52.205Z,14.03
2022-11-01T12:24:03.715Z,14.19
2022-11-01T12:39:39.302Z,14.42
2022-11-01T12:54:50.884Z,14.65
2022-11-01T13:10:33.780Z,14.70
2022-11-01T13:25:46.740Z,14.79
2022-11-01T13:40:55.431Z,14.68
2022-11-01T13:56:02.709Z,14.64
2022-11-01T14:11:07.715Z,14.68
2022-11-01T14:26:23.735Z,14.75
2022-11-01T14:41:32.719Z,14.61
2022-11-01T14:56:40.858Z,14.58
2022-11-01T15:11:45.388Z,14.53
2022-11-01T15:26:48.680Z,14.30
2022-11-01T15:41:54.770Z,14.02
2022-11-01T15:57:02.805Z,14.07
2022-11-01T16:12:24.329Z,14.16
2022-11-01T16:27:28.906Z,14.08
2022-11-01T16:42:33.420Z,13.99
2022-11-01T16:57:39.761Z,14.14
2022-11-01T17:12:43.312Z,14.34
2022-11-01T17:27:51.327Z,14.23
2022-11-01T17:42:55.371Z,14.24
2022-11-01T17:58:15.635Z,14.26
2022-11-01T18:13:25.678Z,14.19
2022-11-01T18:28:32.959Z,14.13
2022-11-01T18:43:40.533Z,14.17
2022-11-01T18:58:44.374Z,14.22
2022-11-01T19:13:51.321Z,14.26
2022-11-01T19:28:55.883Z,14.38
2022-11-01T19:44:12.243Z,14.19
2022-11-01T19:59:16.075Z,14.13
2022-11-01T20:14:21.040Z,14.21
2022-11-01T20:36:15.947Z,14.16
2022-11-01T20:51:19.254Z,14.11
2022-11-01T21:06:25.149Z,14.16
2022-11-01T21:21:45.370Z,14.17
2022-11-01T21:36:53.763Z,14.20
2022-11-01T21:52:00.718Z,14.16
2022-11-01T22:07:06.411Z,14.14
2022-11-01T22:22:09.782Z,14.12
2022-11-01T22:37:13.396Z,14.09
2022-11-01T22:52:32.459Z,14.12
2022-11-01T23:07:38.237Z,14.13
2022-11-01T23:22:41.629Z,14.16
2022-11-01T23:37:45.264Z,14.19
2022-11-01T23:53:06.388Z,14.31
